Lucas, Kansas
Current Conditions -  °F | °C
As of 12:14 AM on Thursday 23 Oct 2014 (Local Time) from KRSL Reporting Station
Broken Clouds Broken Clouds  
Wind Chill: 59°   Ceiling: 1600
Heat Index: 59°   Visibility: 10mi
Dew Point: 56°   Wind: 12mph
Humidity: 90%   Direction: 200°SSW
Pressure: 30.05"   Gusts: NA
Location:  39.06°N, 98.54°W
Report Text: KRSL 230514Z AUTO 20010KT 10SM BKN016 BKN060 15/13 A3005 RMK AO2 T01500133
Loading
Personal Weather Stations






























Interactive Weather Map
Tropical Storm Tracking
New forecast layout! Learn more

10-Day Weather Forecast

Advertisements
Track Severe Weather on mobile